Time;durP1;ratioP1;P1;durP2;ratioP2;P2;SDS_P1;SDS_P2;PMS_P1;PMS_P2;Temp;Humidity;BMP_temperature;BMP_pressure;BME280_temperature;BME280_humidity;BME280_pressure;Samples;Min_cycle;Max_cycle;Signal;HPM_P1;HPM_P2
2023/06/25 00:01:57;;;;;;;8.70;7.37;;;;;;;13.76;100.00;97465.13;4952880;28;20237;-65
2023/06/25 00:04:26;;;;;;;8.63;6.67;;;;;;;13.70;100.00;97469.41;4966037;28;20325;-65
2023/06/25 00:06:54;;;;;;;7.63;6.97;;;;;;;13.69;100.00;97466.94;4953706;28;20210;-64
2023/06/25 00:09:22;;;;;;;7.70;7.07;;;;;;;13.72;100.00;97466.53;4932758;28;20201;-66
2023/06/25 00:11:50;;;;;;;7.80;7.03;;;;;;;13.69;100.00;97464.28;4970811;28;20296;-66
2023/06/25 00:14:17;;;;;;;8.53;7.83;;;;;;;13.65;100.00;97463.03;4947845;28;20312;-66
2023/06/25 00:16:45;;;;;;;8.33;7.63;;;;;;;13.63;100.00;97462.41;4970555;28;20858;-65
2023/06/25 00:19:13;;;;;;;8.17;7.47;;;;;;;13.58;100.00;97461.16;4943028;28;20222;-66
2023/06/25 00:21:42;;;;;;;7.80;7.10;;;;;;;13.56;100.00;97459.69;4954476;28;20234;-64
2023/06/25 00:24:10;;;;;;;7.80;7.20;;;;;;;13.62;100.00;97452.78;4907009;28;20233;-66
2023/06/25 00:26:45;;;;;;;7.33;6.73;;;;;;;13.66;100.00;97451.38;4968543;28;20217;-65
2023/06/25 00:29:13;;;;;;;7.40;6.80;;;;;;;13.63;100.00;97455.22;4946288;28;20222;-64
2023/06/25 00:31:42;;;;;;;7.70;7.10;;;;;;;13.66;100.00;97454.03;4970023;28;20205;-65
2023/06/25 00:34:10;;;;;;;8.47;7.57;;;;;;;13.59;100.00;97457.47;4951629;28;20261;-66
2023/06/25 00:36:40;;;;;;;8.47;7.77;;;;;;;13.56;100.00;97451.72;4958495;28;20245;-63
2023/06/25 00:39:09;;;;;;;7.97;7.27;;;;;;;13.57;100.00;97454.19;4920392;28;22252;-66
2023/06/25 00:41:38;;;;;;;8.23;7.40;;;;;;;13.52;100.00;97467.28;4968161;28;20321;-66
2023/06/25 00:44:06;;;;;;;8.87;7.97;;;;;;;13.50;100.00;97453.34;4970256;28;20222;-66
2023/06/25 00:46:34;;;;;;;8.83;8.13;;;;;;;13.44;100.00;97451.44;4946713;28;20217;-66
2023/06/25 00:49:05;;;;;;;8.07;7.37;;;;;;;13.41;100.00;97446.47;4946144;28;21133;-66
2023/06/25 00:51:35;;;;;;;8.43;7.73;;;;;;;13.28;100.00;97448.03;4970398;28;20229;-66
2023/06/25 00:54:05;;;;;;;8.77;8.00;;;;;;;13.16;100.00;97438.97;4945156;28;20272;-64
2023/06/25 00:56:34;;;;;;;8.17;7.47;;;;;;;13.20;100.00;97442.03;4932188;28;20364;-66
2023/06/25 00:59:03;;;;;;;8.47;7.77;;;;;;;13.12;100.00;97427.06;4969954;28;20950;-67
2023/06/25 01:01:36;;;;;;;8.97;8.03;;;;;;;13.06;100.00;97438.47;4945053;28;20209;-66
2023/06/25 01:04:07;;;;;;;9.40;8.43;;;;;;;13.01;100.00;97439.88;4947884;28;23317;-67
2023/06/25 01:06:37;;;;;;;8.50;7.67;;;;;;;13.02;100.00;97438.03;4967695;28;20210;-67
2023/06/25 01:09:06;;;;;;;8.93;8.10;;;;;;;12.91;100.00;97438.59;4950113;28;20954;-66
2023/06/25 01:11:37;;;;;;;8.80;8.10;;;;;;;12.84;100.00;97443.84;4926880;28;20697;-64
2023/06/25 01:14:05;;;;;;;9.37;8.13;;;;;;;12.76;100.00;97438.66;4955458;28;20353;-66
2023/06/25 01:16:33;;;;;;;9.80;9.00;;;;;;;12.77;100.00;97432.34;4950449;28;20229;-66
2023/06/25 01:19:02;;;;;;;9.97;8.97;;;;;;;12.72;100.00;97427.56;4962425;28;20999;-66
2023/06/25 01:21:32;;;;;;;9.70;8.80;;;;;;;12.67;100.00;97425.47;4945278;28;20284;-65
2023/06/25 01:24:02;;;;;;;9.90;8.83;;;;;;;12.63;100.00;97428.72;4946542;28;20937;-66
2023/06/25 01:26:30;;;;;;;11.20;10.30;;;;;;;12.64;100.00;97423.22;4939026;28;20229;-66
2023/06/25 01:28:57;;;;;;;11.53;10.43;;;;;;;12.59;100.00;97429.13;4964665;28;20466;-66
2023/06/25 01:31:30;;;;;;;10.87;9.77;;;;;;;12.55;100.00;97427.84;4969763;28;20290;-65
2023/06/25 01:33:59;;;;;;;11.83;10.67;;;;;;;12.56;100.00;97428.66;4949690;28;20530;-64
2023/06/25 01:36:26;;;;;;;11.73;10.73;;;;;;;12.57;100.00;97425.00;4949121;28;20617;-67
2023/06/25 01:38:54;;;;;;;13.53;12.37;;;;;;;12.52;100.00;97422.09;4938141;28;20229;-66
2023/06/25 01:41:23;;;;;;;12.90;11.60;;;;;;;12.50;100.00;97416.97;4966272;28;20295;-66
2023/06/25 01:43:50;;;;;;;12.07;11.07;;;;;;;12.43;100.00;97413.41;4916534;28;20320;-63
2023/06/25 01:46:18;;;;;;;12.77;11.63;;;;;;;12.36;100.00;97412.53;4969621;28;20202;-66
2023/06/25 01:48:46;;;;;;;11.20;10.23;;;;;;;12.29;100.00;97412.47;4941521;28;20305;-65
2023/06/25 01:51:13;;;;;;;10.57;9.57;;;;;;;12.30;100.00;97414.09;4942835;28;20315;-66
2023/06/25 01:53:41;;;;;;;10.73;9.60;;;;;;;12.30;100.00;97424.72;4971157;28;20252;-66
2023/06/25 01:56:08;;;;;;;11.40;10.40;;;;;;;12.26;100.00;97423.47;4949166;28;20522;-65
2023/06/25 01:58:37;;;;;;;10.33;9.43;;;;;;;12.14;100.00;97420.50;4918155;28;20650;-65
2023/06/25 02:01:05;;;;;;;11.03;10.13;;;;;;;12.15;100.00;97416.84;4969276;28;20432;-65
2023/06/25 02:03:33;;;;;;;11.27;10.23;;;;;;;12.03;100.00;97403.22;4971443;28;20208;-64
2023/06/25 02:06:00;;;;;;;12.40;11.20;;;;;;;12.09;100.00;97405.13;4923830;28;20690;-66
2023/06/25 02:08:28;;;;;;;11.23;10.23;;;;;;;12.04;100.00;97398.72;4971161;28;20826;-67
2023/06/25 02:10:56;;;;;;;11.00;9.87;;;;;;;12.02;100.00;97404.22;4936245;28;21774;-66
2023/06/25 02:13:23;;;;;;;10.53;9.53;;;;;;;11.96;100.00;97411.06;4970297;28;20859;-66
2023/06/25 02:15:52;;;;;;;10.13;9.17;;;;;;;11.88;100.00;97411.19;4916734;28;20265;-65
2023/06/25 02:18:20;;;;;;;10.33;9.13;;;;;;;11.79;100.00;97401.69;4972175;28;20207;-67
2023/06/25 02:20:47;;;;;;;13.07;9.10;;;;;;;11.65;100.00;97409.47;4946396;28;20221;-66
2023/06/25 02:23:15;;;;;;;9.33;8.53;;;;;;;11.65;100.00;97406.03;4949625;28;20234;-67
2023/06/25 02:25:43;;;;;;;9.83;8.93;;;;;;;11.61;100.00;97400.25;4947469;28;20229;-64
2023/06/25 02:28:11;;;;;;;8.77;7.93;;;;;;;11.53;100.00;97392.41;4961459;28;20301;-67
2023/06/25 02:30:38;;;;;;;10.13;9.23;;;;;;;11.54;100.00;97394.03;4912319;28;20705;-65
2023/06/25 02:33:07;;;;;;;9.53;8.73;;;;;;;11.54;100.00;97386.09;4966566;28;20311;-67
2023/06/25 02:35:35;;;;;;;10.00;9.20;;;;;;;11.50;100.00;97388.28;4944463;28;20727;-65
2023/06/25 02:38:03;;;;;;;10.07;9.27;;;;;;;11.53;100.00;97381.78;4945031;28;21082;-67
2023/06/25 02:40:31;;;;;;;9.03;8.33;;;;;;;11.55;100.00;97385.06;4971865;28;20753;-67
2023/06/25 02:42:59;;;;;;;9.23;8.43;;;;;;;11.42;100.00;97389.22;4951181;28;20221;-67
2023/06/25 02:45:26;;;;;;;9.37;8.47;;;;;;;11.35;100.00;97396.25;4919576;28;20315;-68
2023/06/25 02:47:54;;;;;;;13.47;8.47;;;;;;;11.22;100.00;97394.25;4970326;28;20298;-67
2023/06/25 02:50:23;;;;;;;8.97;8.17;;;;;;;11.16;100.00;97394.97;4949214;28;20567;-66
2023/06/25 02:52:50;;;;;;;8.90;8.20;;;;;;;11.07;100.00;97390.75;4963682;28;20288;-66
2023/06/25 02:55:18;;;;;;;9.87;8.97;;;;;;;11.08;100.00;97397.69;4942217;28;20348;-66
2023/06/25 02:57:46;;;;;;;9.43;8.63;;;;;;;11.03;100.00;97395.63;4939555;28;20305;-64
2023/06/25 03:00:14;;;;;;;9.10;8.30;;;;;;;10.99;100.00;97392.50;4921674;28;21526;-67
2023/06/25 03:02:42;;;;;;;9.07;8.37;;;;;;;10.96;100.00;97400.81;4976253;28;20303;-66
2023/06/25 03:05:10;;;;;;;11.17;8.97;;;;;;;10.91;100.00;97397.88;4970236;28;20460;-67
2023/06/25 03:07:49;;;;;;;8.87;8.07;;;;;;;10.96;100.00;97392.84;4945177;28;20706;-66
2023/06/25 03:10:17;;;;;;;9.33;8.53;;;;;;;10.98;100.00;97393.50;4954285;28;20275;-66
2023/06/25 03:12:45;;;;;;;10.00;9.03;;;;;;;10.93;100.00;97395.88;4957576;28;20202;-63
2023/06/25 03:15:12;;;;;;;9.87;8.97;;;;;;;10.92;100.00;97396.88;4913597;28;20400;-67
2023/06/25 03:17:40;;;;;;;9.07;8.30;;;;;;;11.00;100.00;97394.13;4971366;28;20233;-65
2023/06/25 03:20:09;;;;;;;9.40;8.60;;;;;;;11.00;100.00;97390.69;4971659;28;20453;-66
2023/06/25 03:22:37;;;;;;;9.73;8.73;;;;;;;11.02;100.00;97393.13;4953776;28;20213;-65
2023/06/25 03:25:06;;;;;;;9.90;8.90;;;;;;;11.04;100.00;97401.72;4938768;28;22590;-66
2023/06/25 03:27:34;;;;;;;11.40;10.30;;;;;;;11.01;100.00;97394.97;4970718;28;20381;-64
2023/06/25 03:30:03;;;;;;;9.33;8.57;;;;;;;11.06;100.00;97397.06;4957901;28;20716;-67
2023/06/25 03:32:30;;;;;;;9.40;8.60;;;;;;;11.11;100.00;97395.53;4923990;28;20265;-67
2023/06/25 03:34:59;;;;;;;9.87;8.77;;;;;;;11.17;100.00;97399.25;4963535;28;20471;-65
2023/06/25 03:37:27;;;;;;;9.97;9.07;;;;;;;11.18;100.00;97394.78;4950918;28;20209;-67
2023/06/25 03:39:55;;;;;;;9.47;8.67;;;;;;;11.26;100.00;97403.50;4946507;28;20344;-67
2023/06/25 03:42:24;;;;;;;9.57;8.67;;;;;;;11.23;100.00;97395.91;4974916;28;20235;-66
2023/06/25 03:44:53;;;;;;;9.70;8.73;;;;;;;11.25;100.00;97393.88;4946114;28;20355;-66
2023/06/25 03:47:21;;;;;;;9.73;8.87;;;;;;;11.31;100.00;97394.16;4923666;28;20270;-66
2023/06/25 03:49:49;;;;;;;9.07;8.27;;;;;;;11.39;100.00;97391.41;4969013;28;20212;-65
2023/06/25 03:52:17;;;;;;;10.50;8.67;;;;;;;11.37;100.00;97385.47;4967581;28;20684;-67
2023/06/25 03:54:45;;;;;;;9.47;8.57;;;;;;;11.43;100.00;97374.94;4930186;28;20748;-64
2023/06/25 03:57:13;;;;;;;10.60;9.53;;;;;;;11.51;100.00;97379.31;4966465;28;20237;-67
2023/06/25 03:59:43;;;;;;;9.93;9.03;;;;;;;11.60;100.00;97374.72;4957379;28;20598;-63
2023/06/25 04:02:10;;;;;;;10.17;9.27;;;;;;;11.66;100.00;97378.47;4957112;28;20241;-67
2023/06/25 04:04:38;;;;;;;10.80;9.80;;;;;;;11.72;100.00;97375.88;4925677;28;20324;-64
2023/06/25 04:07:06;;;;;;;10.60;9.53;;;;;;;11.79;100.00;97380.47;4968766;28;20612;-66
2023/06/25 04:09:34;;;;;;;10.03;9.03;;;;;;;11.85;100.00;97385.81;4950277;28;20223;-65
2023/06/25 04:12:02;;;;;;;10.63;9.60;;;;;;;11.91;100.00;97378.13;4940338;28;20283;-66
2023/06/25 04:14:30;;;;;;;10.60;9.70;;;;;;;12.07;100.00;97383.25;4969589;28;20661;-67
2023/06/25 04:16:59;;;;;;;10.77;9.73;;;;;;;12.18;100.00;97381.94;4942368;28;20216;-66
2023/06/25 04:19:27;;;;;;;11.57;10.53;;;;;;;12.37;100.00;97382.28;4926308;28;20217;-67
2023/06/25 04:21:54;;;;;;;10.60;9.70;;;;;;;12.49;100.00;97385.25;4968573;28;20424;-67
2023/06/25 04:24:22;;;;;;;9.90;9.00;;;;;;;12.62;100.00;97387.22;4945438;28;20233;-66
2023/06/25 04:26:50;;;;;;;10.27;9.37;;;;;;;12.76;100.00;97390.81;4942245;28;20217;-65
2023/06/25 04:29:18;;;;;;;10.37;9.37;;;;;;;12.90;100.00;97384.56;4942942;28;20202;-66
2023/06/25 04:31:46;;;;;;;9.07;8.37;;;;;;;13.07;100.00;97381.59;4950960;28;20205;-67
2023/06/25 04:34:18;;;;;;;9.63;8.87;;;;;;;13.14;100.00;97379.81;4935343;28;20337;-64
2023/06/25 04:36:46;;;;;;;11.23;10.33;;;;;;;13.28;100.00;97378.06;4967235;28;20213;-68
2023/06/25 04:39:13;;;;;;;10.93;10.03;;;;;;;13.40;100.00;97375.63;4947478;28;20313;-64
2023/06/25 04:41:41;;;;;;;11.87;10.87;;;;;;;13.54;100.00;97372.06;4953150;28;20382;-68
2023/06/25 04:44:09;;;;;;;12.20;11.00;;;;;;;13.64;100.00;97362.88;4962001;28;20261;-66
2023/06/25 04:46:36;;;;;;;12.13;10.47;;;;;;;13.73;100.00;97365.19;4969297;28;20233;-68
2023/06/25 04:49:06;;;;;;;11.33;10.37;;;;;;;13.84;100.00;97360.28;4938597;28;20209;-65
2023/06/25 04:51:36;;;;;;;10.77;9.60;;;;;;;14.01;100.00;97360.75;4945855;28;20228;-68
2023/06/25 04:54:04;;;;;;;9.27;8.43;;;;;;;14.12;100.00;97362.00;4958094;28;20279;-65
2023/06/25 04:56:31;;;;;;;9.63;8.83;;;;;;;14.18;100.00;97358.50;4931947;28;20518;-69
2023/06/25 04:58:59;;;;;;;9.57;8.13;;;;;;;14.32;100.00;97359.34;4970001;28;20252;-67
2023/06/25 05:01:26;;;;;;;10.50;8.43;;;;;;;14.36;100.00;97360.59;4969554;28;20456;-65
2023/06/25 05:03:54;;;;;;;10.03;8.97;;;;;;;14.39;100.00;97365.50;4952544;28;20303;-68
2023/06/25 05:06:22;;;;;;;9.33;8.60;;;;;;;14.46;100.00;97366.31;4916981;28;20415;-67
2023/06/25 05:08:51;;;;;;;10.63;9.57;;;;;;;14.55;100.00;97366.13;4973105;28;20665;-69
2023/06/25 05:11:18;;;;;;;9.50;8.67;;;;;;;14.76;100.00;97368.63;4925197;28;20206;-68
2023/06/25 05:13:46;;;;;;;8.90;8.20;;;;;;;14.87;100.00;97372.50;4968103;28;20230;-70
2023/06/25 05:16:14;;;;;;;9.70;8.80;;;;;;;14.79;100.00;97362.06;4963252;28;20213;-69
2023/06/25 05:18:42;;;;;;;9.67;8.77;;;;;;;14.87;100.00;97364.50;4948666;28;20225;-70
2023/06/25 05:21:10;;;;;;;9.00;8.27;;;;;;;14.91;100.00;97364.91;4945384;28;20201;-66
2023/06/25 05:23:40;;;;;;;8.20;7.53;;;;;;;15.13;100.00;97362.00;4956748;28;20775;-70
2023/06/25 05:26:09;;;;;;;8.43;7.73;;;;;;;15.29;100.00;97361.53;4944216;28;20213;-67
2023/06/25 05:28:37;;;;;;;8.93;8.23;;;;;;;15.29;100.00;97360.72;4946862;28;20581;-70
2023/06/25 05:31:04;;;;;;;8.70;7.90;;;;;;;15.43;100.00;97358.84;4970460;28;20197;-67
2023/06/25 05:33:32;;;;;;;9.40;8.63;;;;;;;15.48;100.00;97359.03;4947560;28;20626;-70
2023/06/25 05:36:00;;;;;;;8.63;7.93;;;;;;;15.73;100.00;97361.00;4965360;28;20654;-67
2023/06/25 05:38:27;;;;;;;8.87;8.17;;;;;;;15.83;100.00;97355.16;4915039;28;20304;-69
2023/06/25 05:40:55;;;;;;;8.67;7.97;;;;;;;16.02;100.00;97359.63;4967821;28;20221;-69
2023/06/25 05:43:24;;;;;;;8.87;8.17;;;;;;;16.04;100.00;97357.56;4926879;28;20492;-69
2023/06/25 05:45:52;;;;;;;8.33;7.73;;;;;;;16.13;100.00;97358.13;4971777;28;20197;-69
2023/06/25 05:48:20;;;;;;;8.97;8.17;;;;;;;16.31;100.00;97357.38;4956264;28;20260;-70
2023/06/25 05:50:47;;;;;;;8.93;8.00;;;;;;;16.47;100.00;97360.56;4950260;28;20205;-70
2023/06/25 05:53:15;;;;;;;8.40;7.77;;;;;;;16.56;100.00;97361.09;4922408;28;20218;-67
2023/06/25 05:55:43;;;;;;;7.43;6.83;;;;;;;16.78;100.00;97358.88;4974517;28;20244;-70
2023/06/25 05:58:11;;;;;;;8.27;7.60;;;;;;;16.96;100.00;97367.94;4929510;28;20673;-66
2023/06/25 06:00:40;;;;;;;8.07;7.47;;;;;;;17.10;100.00;97356.13;4960443;28;20693;-70
2023/06/25 06:03:08;;;;;;;8.83;8.20;;;;;;;17.21;100.00;97359.91;4970865;28;20229;-68
2023/06/25 06:05:36;;;;;;;7.93;7.30;;;;;;;17.38;100.00;97362.81;4946999;28;20241;-70
2023/06/25 06:08:04;;;;;;;8.23;7.53;;;;;;;17.32;100.00;97355.66;4923885;28;20206;-69
2023/06/25 06:10:32;;;;;;;8.07;7.37;;;;;;;17.27;100.00;97364.41;4958257;28;20201;-69
2023/06/25 06:12:59;;;;;;;7.37;6.80;;;;;;;17.46;100.00;97351.00;4950089;28;20225;-69
2023/06/25 06:15:27;;;;;;;8.60;7.80;;;;;;;17.68;100.00;97361.25;4941907;28;20633;-69
2023/06/25 06:17:56;;;;;;;7.90;7.30;;;;;;;17.67;100.00;97356.94;4974593;28;20209;-69
2023/06/25 06:20:24;;;;;;;8.60;8.00;;;;;;;17.83;100.00;97358.97;4951249;28;21454;-69
2023/06/25 06:22:51;;;;;;;9.97;7.47;;;;;;;17.99;100.00;97354.00;4976033;28;20229;-69
2023/06/25 06:25:19;;;;;;;8.37;7.67;;;;;;;18.11;100.00;97357.59;4916804;28;20283;-68
2023/06/25 06:27:47;;;;;;;8.27;7.57;;;;;;;18.16;100.00;97354.22;4952847;28;20213;-69
2023/06/25 06:30:15;;;;;;;8.07;7.37;;;;;;;18.16;100.00;97349.69;4951139;28;20209;-66
2023/06/25 06:32:43;;;;;;;7.87;7.17;;;;;;;18.37;100.00;97348.34;4969901;28;20201;-69
2023/06/25 06:35:12;;;;;;;8.17;7.37;;;;;;;18.49;100.00;97351.03;4962017;28;20819;-68
2023/06/25 06:37:40;;;;;;;8.17;7.47;;;;;;;18.83;100.00;97355.06;4955443;28;20260;-70
2023/06/25 06:40:08;;;;;;;7.83;7.13;;;;;;;19.02;100.00;97355.78;4923567;28;20292;-67
2023/06/25 06:42:36;;;;;;;7.93;7.23;;;;;;;19.03;100.00;97352.03;4970817;28;20505;-69
2023/06/25 06:45:04;;;;;;;7.70;7.00;;;;;;;19.15;100.00;97357.41;4950344;28;20238;-69
2023/06/25 06:47:32;;;;;;;8.07;7.37;;;;;;;19.25;100.00;97346.88;4949776;28;20296;-69
2023/06/25 06:50:00;;;;;;;8.50;7.67;;;;;;;19.40;100.00;97364.34;4974379;28;20257;-69
2023/06/25 06:52:29;;;;;;;7.73;7.17;;;;;;;19.50;100.00;97360.03;4943830;28;20945;-69
2023/06/25 06:54:56;;;;;;;7.43;6.77;;;;;;;19.65;100.00;97364.91;4910987;28;20352;-68
2023/06/25 06:57:24;;;;;;;6.50;6.00;;;;;;;19.74;100.00;97359.97;4936679;28;20229;-68
2023/06/25 06:59:52;;;;;;;6.43;6.03;;;;;;;19.79;100.00;97359.22;4950131;28;20254;-67
2023/06/25 07:02:20;;;;;;;7.10;6.60;;;;;;;19.98;100.00;97348.34;4919135;28;20369;-68
2023/06/25 07:04:47;;;;;;;6.70;5.53;;;;;;;20.14;100.00;97349.44;4958775;28;20836;-68
2023/06/25 07:07:15;;;;;;;7.00;6.50;;;;;;;20.19;100.00;97354.91;4969100;28;20197;-69
2023/06/25 07:09:53;;;;;;;6.67;6.17;;;;;;;20.19;100.00;97350.31;4907775;28;20228;-66
2023/06/25 07:12:21;;;;;;;6.87;6.27;;;;;;;20.25;99.13;97335.88;4973024;28;20210;-67
2023/06/25 07:14:49;;;;;;;7.07;6.37;;;;;;;20.22;99.54;97347.13;4935925;28;20432;-66
2023/06/25 07:17:17;;;;;;;6.70;6.30;;;;;;;20.19;97.84;97344.13;4972392;28;20658;-68
2023/06/25 07:19:44;;;;;;;6.30;5.90;;;;;;;20.46;100.00;97338.94;4951007;28;20244;-68
2023/06/25 07:22:12;;;;;;;6.30;5.80;;;;;;;20.53;95.48;97344.16;4971621;28;20669;-68
2023/06/25 07:24:40;;;;;;;6.40;6.00;;;;;;;20.65;93.74;97344.09;4944424;28;20594;-67
2023/06/25 07:27:09;;;;;;;6.87;6.27;;;;;;;20.64;92.52;97347.81;4918066;28;20211;-65
2023/06/25 07:29:37;;;;;;;7.00;6.50;;;;;;;20.66;92.55;97337.66;4972465;28;20232;-67
2023/06/25 07:32:06;;;;;;;6.40;5.90;;;;;;;20.94;94.60;97346.69;4951177;28;20206;-68
2023/06/25 07:34:35;;;;;;;6.13;5.73;;;;;;;21.03;92.81;97349.78;4950745;28;20237;-66
2023/06/25 07:37:03;;;;;;;7.03;6.37;;;;;;;21.01;96.73;97351.91;4963563;28;20567;-67
2023/06/25 07:39:31;;;;;;;7.07;6.47;;;;;;;20.92;97.01;97344.25;4946961;28;20288;-66
2023/06/25 07:41:59;;;;;;;7.40;6.80;;;;;;;;;;4920755;28;20782;-69
2023/06/25 07:44:28;;;;;;;6.73;6.23;;;;;;;20.63;96.72;97338.09;4969444;28;20299;-68
2023/06/25 07:46:58;;;;;;;7.67;7.07;;;;;;;20.85;97.86;97338.22;4946014;28;20557;-69
2023/06/25 07:49:26;;;;;;;7.57;6.97;;;;;;;21.06;96.21;97333.13;4949236;28;20218;-67
2023/06/25 07:51:54;;;;;;;7.40;6.87;;;;;;;21.20;95.99;97331.69;4969339;28;20462;-68
2023/06/25 07:54:22;;;;;;;7.53;6.93;;;;;;;21.16;93.79;97333.25;4949483;28;20320;-69
2023/06/25 07:56:50;;;;;;;6.80;6.20;;;;;;;21.27;98.40;97326.13;4967986;28;20202;-68
2023/06/25 07:59:18;;;;;;;7.00;6.50;;;;;;;21.43;90.28;97332.53;4923062;28;20794;-69
2023/06/25 08:01:48;;;;;;;6.83;6.23;;;;;;;21.54;88.37;97331.56;4963608;28;20586;-68
2023/06/25 08:04:15;;;;;;;6.93;6.33;;;;;;;21.23;86.09;97327.69;4926876;28;20320;-68
2023/06/25 08:06:43;;;;;;;6.83;6.23;;;;;;;21.45;87.88;97326.91;4971537;28;20205;-67
2023/06/25 08:09:11;;;;;;;7.43;6.83;;;;;;;21.39;89.08;97307.94;4972342;28;22336;-68
2023/06/25 08:11:38;;;;;;;7.00;6.40;;;;;;;21.23;86.74;97320.44;4943609;28;20280;-67
2023/06/25 08:14:06;;;;;;;6.77;6.27;;;;;;;21.14;85.11;97313.81;4918635;28;20973;-69
2023/06/25 08:16:33;;;;;;;7.00;6.50;;;;;;;21.23;86.38;97311.53;4965817;28;20242;-67
2023/06/25 08:19:03;;;;;;;7.30;6.70;;;;;;;20.98;85.17;97314.69;4953821;28;20503;-68
2023/06/25 08:21:30;;;;;;;6.40;5.90;;;;;;;21.18;85.98;97308.78;4949566;28;20304;-67
2023/06/25 08:23:58;;;;;;;6.07;5.57;;;;;;;21.54;85.31;97307.31;4965810;28;20831;-68
2023/06/25 08:26:25;;;;;;;6.80;6.10;;;;;;;21.66;84.12;97312.59;4949542;28;20604;-69
2023/06/25 08:28:55;;;;;;;7.13;6.63;;;;;;;21.63;82.32;97315.78;4918423;28;20590;-68
2023/06/25 08:31:23;;;;;;;6.90;6.33;;;;;;;21.72;83.42;97309.97;4971937;28;20297;-68
2023/06/25 08:33:51;;;;;;;7.23;6.63;;;;;;;21.98;85.67;97306.47;4948650;28;20528;-68
2023/06/25 08:36:20;;;;;;;6.37;5.87;;;;;;;22.04;78.21;97306.50;4947222;28;20284;-68
2023/06/25 08:38:47;;;;;;;7.17;6.47;;;;;;;21.92;76.62;97307.47;4964284;28;20301;-67
2023/06/25 08:41:15;;;;;;;5.93;5.23;;;;;;;21.96;77.20;97310.47;4952620;28;20301;-68
2023/06/25 08:43:43;;;;;;;5.17;4.77;;;;;;;22.09;74.71;97306.56;4935219;28;20222;-66
2023/06/25 08:46:11;;;;;;;5.97;5.57;;;;;;;22.10;78.04;97300.09;4961599;28;20219;-69
2023/06/25 08:48:39;;;;;;;6.07;5.67;;;;;;;21.82;73.09;97297.41;4957293;28;20927;-66
2023/06/25 08:51:10;;;;;;;6.10;5.70;;;;;;;22.16;76.02;97296.38;4950493;28;20232;-69
2023/06/25 08:53:40;;;;;;;6.23;5.73;;;;;;;21.99;73.96;97293.81;4946573;28;20843;-68
2023/06/25 08:56:07;;;;;;;6.90;5.13;;;;;;;22.46;70.37;97291.53;4949855;28;20296;-66
2023/06/25 08:58:36;;;;;;;4.60;4.30;;;;;;;22.47;59.71;97295.84;4962902;28;20230;-67
2023/06/25 09:01:04;;;;;;;4.60;4.30;;;;;;;22.64;57.76;97295.69;4922634;28;20818;-69
2023/06/25 09:03:31;;;;;;;4.40;4.00;;;;;;;22.86;58.06;97294.75;4968026;28;20261;-67
2023/06/25 09:05:59;;;;;;;4.50;4.20;;;;;;;22.82;54.23;97292.56;4948156;28;20527;-69
2023/06/25 09:08:27;;;;;;;5.03;3.90;;;;;;;22.92;52.74;97297.22;4944038;28;20219;-67
2023/06/25 09:10:57;;;;;;;4.40;4.00;;;;;;;22.99;53.48;97288.88;4961534;28;20373;-68
2023/06/25 09:13:26;;;;;;;4.23;3.93;;;;;;;22.98;51.67;97293.47;4949403;28;20716;-68
2023/06/25 09:16:01;;;;;;;3.80;3.60;;;;;;;23.06;52.00;97288.63;4920681;28;22040;-68
2023/06/25 09:18:30;;;;;;;3.90;3.60;;;;;;;23.16;51.11;97287.88;4965636;28;20232;-68
2023/06/25 09:21:01;;;;;;;3.40;3.20;;;;;;;23.06;50.30;97281.34;4944782;28;21000;-69
2023/06/25 09:23:29;;;;;;;3.73;3.53;;;;;;;23.31;49.85;97290.69;4941896;28;20316;-68
2023/06/25 09:25:58;;;;;;;4.67;4.33;;;;;;;23.43;50.91;97287.75;4970123;28;20268;-69
2023/06/25 09:28:26;;;;;;;4.07;3.87;;;;;;;23.34;53.02;97279.34;4953468;28;20292;-67
2023/06/25 09:30:57;;;;;;;3.60;3.40;;;;;;;23.57;49.45;97279.94;4913572;28;20496;-69
2023/06/25 09:33:32;;;;;;;4.13;3.90;;;;;;;23.30;49.98;97272.03;4965403;28;20247;-68
2023/06/25 09:36:01;;;;;;;4.63;4.23;;;;;;;23.16;53.00;97269.78;4951930;28;20502;-68
2023/06/25 09:38:37;;;;;;;4.53;4.17;;;;;;;23.28;55.68;97266.88;4943358;28;20347;-68
2023/06/25 09:41:06;;;;;;;4.50;4.20;;;;;;;23.40;53.62;97264.78;4960897;28;20202;-70
2023/06/25 09:43:34;;;;;;;4.30;4.00;;;;;;;23.39;55.25;97257.75;4958774;28;20209;-66
2023/06/25 09:46:02;;;;;;;4.87;4.53;;;;;;;23.47;55.56;97261.00;4962693;28;20487;-68
2023/06/25 09:48:31;;;;;;;4.57;4.27;;;;;;;23.47;56.80;97261.00;4916034;28;20221;-66
2023/06/25 09:50:59;;;;;;;4.90;4.50;;;;;;;23.66;56.00;97262.13;4962914;28;20424;-68
2023/06/25 09:53:27;;;;;;;4.60;4.20;;;;;;;23.49;52.64;97266.94;4932743;28;20209;-68
2023/06/25 09:55:56;;;;;;;5.47;4.97;;;;;;;23.13;51.60;97259.50;4967710;28;20390;-68
2023/06/25 09:58:26;;;;;;;4.87;4.50;;;;;;;22.93;52.44;97254.81;4965819;28;20195;-67
2023/06/25 10:00:54;;;;;;;4.70;4.40;;;;;;;23.05;53.99;97241.91;4955399;28;20206;-69
2023/06/25 10:03:22;;;;;;;4.43;4.13;;;;;;;23.39;53.45;97251.50;4916293;28;20241;-67
2023/06/25 10:05:51;;;;;;;4.73;4.43;;;;;;;23.61;55.81;97247.78;4963615;28;20459;-69
2023/06/25 10:08:19;;;;;;;4.50;4.20;;;;;;;23.90;54.85;97261.63;4962050;28;20756;-69
2023/06/25 10:10:56;;;;;;;5.07;4.67;;;;;;;23.93;51.82;97254.88;4946170;28;20725;-68
2023/06/25 10:13:25;;;;;;;4.57;4.17;;;;;;;23.91;54.51;97244.31;4966235;28;20235;-68
2023/06/25 10:16:00;;;;;;;5.10;4.70;;;;;;;24.04;54.15;97253.81;4941112;28;20354;-69
2023/06/25 10:18:28;;;;;;;4.80;4.50;;;;;;;24.07;51.64;97242.47;4915227;28;20287;-67
2023/06/25 10:20:56;;;;;;;5.23;4.83;;;;;;;24.03;51.79;97237.84;4968973;28;20217;-69
2023/06/25 10:23:25;;;;;;;4.70;4.40;;;;;;;24.16;54.19;97242.75;4945312;28;20205;-68
2023/06/25 10:25:57;;;;;;;4.60;4.20;;;;;;;23.99;51.15;97240.25;4940695;28;20544;-67
2023/06/25 10:28:31;;;;;;;4.77;4.37;;;;;;;23.91;55.58;97238.91;4965088;28;20457;-69
2023/06/25 10:31:11;;;;;;;4.60;4.40;;;;;;;23.97;55.73;97229.69;4949018;28;20296;-70
2023/06/25 10:33:40;;;;;;;5.30;4.90;;;;;;;24.09;51.72;97228.66;4934479;28;20553;-67
2023/06/25 10:36:09;;;;;;;4.97;4.47;;;;;;;24.23;54.07;97226.19;4964663;28;20280;-70
2023/06/25 10:38:38;;;;;;;4.67;4.37;;;;;;;24.41;53.50;97228.38;4945583;28;20209;-67
2023/06/25 10:41:05;;;;;;;6.10;5.60;;;;;;;24.52;52.86;97226.47;4948424;28;20205;-69
2023/06/25 10:43:37;;;;;;;5.23;4.73;;;;;;;24.55;50.25;97225.09;4970337;28;20217;-69
2023/06/25 10:46:04;;;;;;;4.33;4.03;;;;;;;24.41;50.45;97219.41;4942581;28;20353;-69
2023/06/25 10:48:34;;;;;;;8.27;7.60;;;;;;;24.67;51.45;97224.78;4962882;28;20787;-69
2023/06/25 10:51:02;;;;;;;4.73;4.37;;;;;;;24.72;49.29;97227.47;4931018;28;20244;-69
2023/06/25 10:53:31;;;;;;;4.77;4.43;;;;;;;24.74;51.52;97208.25;4956690;28;20201;-66
2023/06/25 10:55:59;;;;;;;4.67;4.37;;;;;;;24.76;47.56;97223.16;4933712;28;20210;-69
2023/06/25 10:58:27;;;;;;;4.43;4.20;;;;;;;24.87;48.87;97215.81;4960206;28;20288;-67
2023/06/25 11:00:57;;;;;;;5.13;4.83;;;;;;;24.87;47.98;97218.53;4970376;28;20297;-69
2023/06/25 11:03:25;;;;;;;4.63;4.23;;;;;;;24.92;46.75;97215.78;4954686;28;20229;-69
2023/06/25 11:05:53;;;;;;;6.00;5.00;;;;;;;24.90;44.83;97209.06;4934515;28;21046;-68
2023/06/25 11:08:24;;;;;;;4.60;4.30;;;;;;;24.97;46.37;97204.13;4967070;28;20237;-69
2023/06/25 11:10:53;;;;;;;4.70;4.40;;;;;;;25.10;44.44;97206.25;4941944;28;20927;-68
2023/06/25 11:13:20;;;;;;;4.33;4.03;;;;;;;25.37;45.91;97210.44;4973298;28;20686;-70
2023/06/25 11:15:48;;;;;;;4.90;4.60;;;;;;;25.37;44.82;97204.19;4969019;28;21060;-69
2023/06/25 11:18:22;;;;;;;4.67;4.37;;;;;;;25.22;42.69;97199.69;4947954;28;20216;-70
2023/06/25 11:20:49;;;;;;;4.83;4.53;;;;;;;24.79;44.33;97195.50;4922309;28;20549;-70
2023/06/25 11:23:17;;;;;;;4.80;4.40;;;;;;;24.94;43.77;97196.56;4975003;28;20241;-70
2023/06/25 11:25:45;;;;;;;4.73;4.33;;;;;;;25.10;50.01;97194.59;4922413;28;21413;-70
2023/06/25 11:28:15;;;;;;;5.30;4.80;;;;;;;25.22;47.55;97178.00;4969480;28;21218;-69
2023/06/25 11:30:44;;;;;;;4.53;4.13;;;;;;;25.58;47.68;97184.03;4969883;28;20206;-64
2023/06/25 11:33:15;;;;;;;4.60;4.30;;;;;;;26.13;47.03;97177.63;4952701;28;20252;-66